createdAt,value
2023-03-01T00:00:06.033Z,100908.31
2023-03-01T00:00:52.953Z,100907.38
2023-03-01T00:01:39.932Z,100903.09
2023-03-01T00:02:26.892Z,100902.34
2023-03-01T00:03:14.554Z,100901.41
2023-03-01T00:04:01.786Z,100903.78
2023-03-01T00:04:48.671Z,100902.81
2023-03-01T00:05:35.592Z,100898.75
2023-03-01T00:06:23.148Z,100903.09
2023-03-01T00:07:10.064Z,100905.22
2023-03-01T00:07:57.012Z,100902.25
2023-03-01T00:08:43.984Z,100902.91
2023-03-01T00:09:30.989Z,100900.84
2023-03-01T00:10:18.066Z,100900.19
2023-03-01T00:11:11.230Z,100904.72
2023-03-01T00:11:58.178Z,100901.75
2023-03-01T00:12:45.093Z,100898.47
2023-03-01T00:13:32.065Z,100892.19
2023-03-01T00:14:18.985Z,100896.66
2023-03-01T00:15:06.225Z,100891.25
2023-03-01T00:15:53.075Z,100889.06
2023-03-01T00:16:42.160Z,100900.38
2023-03-01T00:17:29.113Z,100885.81
2023-03-01T00:18:15.918Z,100889.44
2023-03-01T00:19:02.997Z,100897.03
2023-03-01T00:19:49.842Z,100891.41
2023-03-01T00:20:36.737Z,100894.25
2023-03-01T00:21:24.735Z,100902.91
2023-03-01T00:22:11.695Z,100890.28
2023-03-01T00:22:58.584Z,100893.22
2023-03-01T00:23:45.433Z,100895.59
2023-03-01T00:24:32.398Z,100898.13
2023-03-01T00:25:19.300Z,100896.34
2023-03-01T00:26:14.507Z,100899.47
2023-03-01T00:27:01.447Z,100896.72
2023-03-01T00:27:50.116Z,100898.31
2023-03-01T00:28:37.212Z,100896.59
2023-03-01T00:29:25.388Z,100906.00
2023-03-01T00:30:12.519Z,100899.38
2023-03-01T00:31:07.912Z,100894.09
2023-03-01T00:31:54.910Z,100900.63
2023-03-01T00:32:41.834Z,100898.47
2023-03-01T00:33:28.630Z,100901.87
2023-03-01T00:34:15.517Z,100897.41
2023-03-01T00:35:02.411Z,100898.66
2023-03-01T00:35:49.329Z,100894.94
2023-03-01T00:36:37.820Z,100898.06
2023-03-01T00:37:24.897Z,100896.91
2023-03-01T00:38:11.786Z,100895.41
2023-03-01T00:38:59.022Z,100894.66
2023-03-01T00:39:45.900Z,100897.41
2023-03-01T00:40:35.410Z,100899.88
2023-03-01T00:41:23.959Z,100896.34
2023-03-01T00:42:10.794Z,100896.78
2023-03-01T00:42:57.700Z,100895.41
2023-03-01T00:43:45.725Z,100898.81
2023-03-01T00:44:32.651Z,100897.66
2023-03-01T00:45:19.668Z,100891.91
2023-03-01T00:46:09.244Z,100894.16
2023-03-01T00:46:56.310Z,100897.22
2023-03-01T00:47:43.546Z,100889.88
2023-03-01T00:48:30.380Z,100895.94
2023-03-01T00:49:17.268Z,100894.16
2023-03-01T00:50:04.391Z,100895.63
2023-03-01T00:50:51.258Z,100894.69
2023-03-01T00:51:38.293Z,100896.22
2023-03-01T00:52:25.189Z,100897.28
2023-03-01T00:53:12.090Z,100895.25
2023-03-01T00:54:01.551Z,100882.91
2023-03-01T00:54:48.410Z,100888.53
2023-03-01T00:55:35.327Z,100889.56
2023-03-01T00:56:22.431Z,100890.84
2023-03-01T00:57:09.341Z,100889.78
2023-03-01T00:57:56.259Z,100884.16
2023-03-01T00:58:43.618Z,100882.06
2023-03-01T00:59:30.519Z,100877.81
2023-03-01T01:00:17.808Z,100886.81
2023-03-01T01:01:18.497Z,100886.91
2023-03-01T01:02:05.334Z,100886.06
2023-03-01T01:02:52.248Z,100883.69
2023-03-01T01:03:40.042Z,100883.41
2023-03-01T01:04:26.881Z,100884.66
2023-03-01T01:05:13.896Z,100881.25
2023-03-01T01:06:06.068Z,100879.88
2023-03-01T01:06:52.980Z,100878.63
2023-03-01T01:07:40.191Z,100877.59
2023-03-01T01:08:27.047Z,100878.25
2023-03-01T01:09:19.849Z,100878.78
2023-03-01T01:10:07.832Z,100868.78
2023-03-01T01:10:54.725Z,100872.19
2023-03-01T01:11:41.643Z,100874.56
2023-03-01T01:12:28.556Z,100872.47
2023-03-01T01:13:15.654Z,100872.56
2023-03-01T01:14:02.594Z,100868.88
2023-03-01T01:14:49.464Z,100874.78
2023-03-01T01:15:36.374Z,100870.78
2023-03-01T01:16:24.976Z,100868.19
2023-03-01T01:17:11.848Z,100858.94
2023-03-01T01:17:58.723Z,100854.91
2023-03-01T01:18:46.111Z,100857.03
2023-03-01T01:19:33.222Z,100857.34
2023-03-01T01:20:20.192Z,100852.88
2023-03-01T01:21:09.584Z,100853.31
2023-03-01T01:21:56.537Z,100860.91
2023-03-01T01:22:43.381Z,100859.16
2023-03-01T01:23:30.253Z,100863.87
2023-03-01T01:24:19.680Z,100857.25
2023-03-01T01:25:06.930Z,100849.50
2023-03-01T01:25:53.858Z,100851.09
2023-03-01T01:26:40.890Z,100851.31
2023-03-01T01:27:27.774Z,100850.22
2023-03-01T01:28:14.635Z,100852.88
2023-03-01T01:29:03.663Z,100851.19
2023-03-01T01:29:50.682Z,100842.03
2023-03-01T01:30:37.630Z,100842.34
2023-03-01T01:31:25.366Z,100839.38
2023-03-01T01:32:12.368Z,100841.09
2023-03-01T01:32:59.213Z,100843.34
2023-03-01T01:33:46.794Z,100845.28
2023-03-01T01:34:33.685Z,100843.22
2023-03-01T01:35:20.643Z,100841.22
2023-03-01T01:36:08.227Z,100840.16
2023-03-01T01:36:55.653Z,100839.84
2023-03-01T01:37:42.533Z,100839.09
2023-03-01T01:38:29.430Z,100837.63
2023-03-01T01:39:16.334Z,100834.84
2023-03-01T01:40:06.742Z,100832.59
2023-03-01T01:40:53.703Z,100839.41
2023-03-01T01:41:43.305Z,100834.09
2023-03-01T01:42:30.204Z,100831.66
2023-03-01T01:43:32.365Z,100829.00
2023-03-01T01:44:19.183Z,100836.13
2023-03-01T01:45:29.420Z,100834.41
2023-03-01T01:46:25.377Z,100828.75
2023-03-01T01:47:23.451Z,100828.00
2023-03-01T01:48:14.679Z,100833.87
2023-03-01T01:49:07.668Z,100827.28
2023-03-01T01:49:58.337Z,100832.72
2023-03-01T01:50:46.227Z,100827.06
2023-03-01T01:51:41.139Z,100831.53
2023-03-01T01:52:37.273Z,100838.25
2023-03-01T01:53:25.246Z,100827.50
2023-03-01T01:54:30.446Z,100825.25
2023-03-01T01:55:28.661Z,100826.97
2023-03-01T01:56:16.684Z,100828.47
2023-03-01T01:57:05.437Z,100824.09
2023-03-01T01:57:56.068Z,100824.00
2023-03-01T01:58:42.741Z,100828.25
2023-03-01T01:59:30.173Z,100815.34
2023-03-01T02:00:28.638Z,100818.03
2023-03-01T02:01:15.638Z,100824.94
2023-03-01T02:02:04.970Z,100813.34
2023-03-01T02:03:19.022Z,100814.62
2023-03-01T02:04:07.702Z,100814.53
2023-03-01T02:05:04.833Z,100809.63
2023-03-01T02:06:13.293Z,100807.78
2023-03-01T02:07:05.313Z,100807.78
2023-03-01T02:07:52.534Z,100805.12
2023-03-01T02:08:42.493Z,100818.53
2023-03-01T02:09:29.484Z,100810.47
2023-03-01T02:10:16.790Z,100811.44
2023-03-01T02:11:05.448Z,100816.22
2023-03-01T02:11:52.834Z,100811.62
2023-03-01T02:12:40.164Z,100813.78
2023-03-01T02:13:27.772Z,100811.00
2023-03-01T02:14:16.202Z,100815.38
2023-03-01T02:15:03.186Z,100816.94
2023-03-01T02:15:50.492Z,100812.16
2023-03-01T02:16:37.657Z,100808.31
2023-03-01T02:17:24.835Z,100812.91
2023-03-01T02:18:14.840Z,100811.41
2023-03-01T02:19:02.332Z,100812.78
2023-03-01T02:20:20.096Z,100809.50
2023-03-01T02:21:07.075Z,100811.84
2023-03-01T02:22:22.126Z,100813.88
2023-03-01T02:23:09.376Z,100813.78
2023-03-01T02:23:59.119Z,100808.12
2023-03-01T02:24:53.157Z,100809.38
2023-03-01T02:25:40.020Z,100814.62
2023-03-01T02:26:36.677Z,100816.53
2023-03-01T02:27:25.921Z,100811.94
2023-03-01T02:28:16.782Z,100815.03
2023-03-01T02:29:04.317Z,100817.69
2023-03-01T02:29:51.380Z,100820.50
2023-03-01T02:30:38.367Z,100814.94
2023-03-01T02:31:43.195Z,100815.16
2023-03-01T02:32:30.343Z,100820.78
2023-03-01T02:33:17.268Z,100802.13
2023-03-01T02:34:05.727Z,100810.47
2023-03-01T02:34:54.782Z,100806.72
2023-03-01T02:35:41.857Z,100812.78
2023-03-01T02:36:47.825Z,100810.88
2023-03-01T02:37:36.787Z,100807.19
2023-03-01T02:38:24.274Z,100805.88
2023-03-01T02:39:17.756Z,100805.34
2023-03-01T02:40:08.132Z,100800.88
2023-03-01T02:40:56.077Z,100803.84
2023-03-01T02:41:46.050Z,100798.19
2023-03-01T02:42:40.142Z,100801.19
2023-03-01T02:43:30.477Z,100797.38
2023-03-01T02:44:17.426Z,100797.69
2023-03-01T02:45:04.720Z,100804.19
2023-03-01T02:45:53.759Z,100795.63
2023-03-01T02:46:55.513Z,100793.84
2023-03-01T02:47:42.410Z,100788.06
2023-03-01T02:48:29.247Z,100789.03
2023-03-01T02:49:30.081Z,100784.34
2023-03-01T02:50:19.761Z,100786.37
2023-03-01T02:51:20.610Z,100786.37
2023-03-01T02:52:22.637Z,100782.53
2023-03-01T02:53:17.933Z,100786.78
2023-03-01T02:54:29.687Z,100794.69
2023-03-01T02:55:18.473Z,100792.66
2023-03-01T02:56:05.539Z,100790.44
2023-03-01T02:56:53.238Z,100788.94
2023-03-01T02:57:42.322Z,100793.19
2023-03-01T02:58:29.162Z,100784.22
2023-03-01T02:59:18.155Z,100786.78
2023-03-01T03:00:08.668Z,100784.03
2023-03-01T03:00:55.796Z,100778.56
2023-03-01T03:01:43.134Z,100780.50
2023-03-01T03:02:37.738Z,100777.19
2023-03-01T03:03:24.670Z,100781.22
2023-03-01T03:04:18.252Z,100781.97
2023-03-01T03:05:12.414Z,100777.09
2023-03-01T03:05:59.372Z,100775.06
2023-03-01T03:06:47.124Z,100781.88
2023-03-01T03:07:36.238Z,100776.78
2023-03-01T03:08:25.500Z,100776.63
2023-03-01T03:09:14.721Z,100777.50
2023-03-01T03:10:04.792Z,100772.06
2023-03-01T03:10:51.646Z,100773.66
2023-03-01T03:11:40.324Z,100771.00
2023-03-01T03:12:27.239Z,100768.22
2023-03-01T03:13:15.703Z,100774.84
2023-03-01T03:14:02.926Z,100771.63
2023-03-01T03:14:50.222Z,100766.72
2023-03-01T03:15:37.381Z,100771.75
2023-03-01T03:16:24.534Z,100774.22
2023-03-01T03:17:11.444Z,100760.97
2023-03-01T03:17:59.693Z,100766.22
2023-03-01T03:18:46.605Z,100762.81
2023-03-01T03:19:33.492Z,100763.34
2023-03-01T03:20:31.946Z,100767.81
2023-03-01T03:21:19.404Z,100759.22
2023-03-01T03:22:06.424Z,100764.06
2023-03-01T03:22:54.879Z,100764.22
2023-03-01T03:23:42.100Z,100760.81
2023-03-01T03:24:39.083Z,100758.47
2023-03-01T03:25:27.224Z,100760.25
2023-03-01T03:26:14.534Z,100762.72
2023-03-01T03:27:01.425Z,100759.75
2023-03-01T03:27:50.797Z,100768.38
2023-03-01T03:28:41.023Z,100761.75
2023-03-01T03:29:29.390Z,100765.91
2023-03-01T03:30:20.153Z,100762.72
2023-03-01T03:31:11.141Z,100755.78
2023-03-01T03:31:58.312Z,100762.56
2023-03-01T03:32:53.484Z,100762.25
2023-03-01T03:33:40.427Z,100757.34
2023-03-01T03:34:27.260Z,100753.22
2023-03-01T03:35:14.167Z,100752.25
2023-03-01T03:36:01.055Z,100749.41
2023-03-01T03:36:47.984Z,100750.56
2023-03-01T03:37:53.353Z,100754.41
2023-03-01T03:38:41.244Z,100756.09
2023-03-01T03:39:28.444Z,100749.06
2023-03-01T03:40:16.700Z,100746.72
2023-03-01T03:41:06.648Z,100755.22
2023-03-01T03:41:54.282Z,100755.53
2023-03-01T03:42:41.110Z,100748.50
2023-03-01T03:43:27.972Z,100752.44
2023-03-01T03:44:14.832Z,100749.34
2023-03-01T03:45:01.754Z,100755.81
2023-03-01T03:45:50.218Z,100750.72
2023-03-01T03:46:37.112Z,100752.56
2023-03-01T03:47:23.983Z,100750.66
2023-03-01T03:48:11.378Z,100751.84
2023-03-01T03:48:58.238Z,100750.56
2023-03-01T03:49:45.124Z,100757.97
2023-03-01T03:50:32.477Z,100760.94
2023-03-01T03:51:20.080Z,100758.66
2023-03-01T03:52:14.517Z,100762.50
2023-03-01T03:53:02.845Z,100763.03
2023-03-01T03:53:49.716Z,100762.16
2023-03-01T03:54:36.697Z,100763.69
2023-03-01T03:55:24.142Z,100759.41
2023-03-01T03:56:11.059Z,100763.78
2023-03-01T03:56:58.017Z,100761.00
2023-03-01T03:57:45.271Z,100769.06
2023-03-01T03:58:32.220Z,100768.19
2023-03-01T03:59:19.118Z,100767.66
2023-03-01T04:00:13.836Z,100766.50
2023-03-01T04:01:02.036Z,100763.84
2023-03-01T04:01:48.854Z,100761.44
2023-03-01T04:02:35.858Z,100760.53
2023-03-01T04:03:23.529Z,100773.31
2023-03-01T04:04:13.748Z,100764.94
2023-03-01T04:05:00.908Z,100768.66
2023-03-01T04:05:48.475Z,100764.59
2023-03-01T04:06:35.359Z,100766.91
2023-03-01T04:07:22.205Z,100772.13
2023-03-01T04:08:09.875Z,100773.31
2023-03-01T04:09:01.156Z,100771.41
2023-03-01T04:09:48.002Z,100764.19
2023-03-01T04:10:37.444Z,100768.75
2023-03-01T04:11:27.209Z,100763.03
2023-03-01T04:12:14.110Z,100767.38
2023-03-01T04:13:01.396Z,100772.31
2023-03-01T04:13:48.547Z,100762.81
2023-03-01T04:14:35.488Z,100765.75
2023-03-01T04:15:23.951Z,100767.97
2023-03-01T04:16:11.133Z,100770.00
2023-03-01T04:16:58.499Z,100767.66
2023-03-01T04:17:47.319Z,100777.94
2023-03-01T04:18:34.192Z,100775.16
2023-03-01T04:19:21.093Z,100767.31
2023-03-01T04:20:12.303Z,100774.56
2023-03-01T04:20:59.122Z,100766.50
2023-03-01T04:21:46.226Z,100772.69
2023-03-01T04:22:34.716Z,100769.28
2023-03-01T04:23:22.230Z,100774.84
2023-03-01T04:24:10.788Z,100767.47
2023-03-01T04:24:57.749Z,100771.88
2023-03-01T04:25:55.919Z,100770.81
2023-03-01T04:26:42.790Z,100771.22
2023-03-01T04:27:29.612Z,100774.53
2023-03-01T04:28:17.264Z,100774.44
2023-03-01T04:29:04.447Z,100773.56
2023-03-01T04:29:51.326Z,100770.16
2023-03-01T04:30:39.692Z,100772.19
2023-03-01T04:31:26.581Z,100771.12
2023-03-01T04:32:15.059Z,100771.22
2023-03-01T04:33:02.002Z,100774.88
2023-03-01T04:33:54.634Z,100773.56
2023-03-01T04:34:41.491Z,100770.41
2023-03-01T04:35:29.022Z,100768.16
2023-03-01T04:36:18.676Z,100766.56
2023-03-01T04:37:07.425Z,100761.91
2023-03-01T04:37:54.275Z,100771.34
2023-03-01T04:38:41.955Z,100772.41
2023-03-01T04:39:28.877Z,100772.66
2023-03-01T04:40:17.407Z,100776.56
2023-03-01T04:41:09.668Z,100774.47
2023-03-01T04:41:56.600Z,100772.53
2023-03-01T04:42:44.361Z,100767.94
2023-03-01T04:43:31.274Z,100770.59
2023-03-01T04:44:18.187Z,100776.81
2023-03-01T04:45:14.271Z,100774.75
2023-03-01T04:46:07.524Z,100773.91
2023-03-01T04:46:54.379Z,100771.06
2023-03-01T04:47:47.093Z,100774.00
2023-03-01T04:48:33.971Z,100774.00
2023-03-01T04:49:20.895Z,100774.75
2023-03-01T04:50:09.228Z,100770.81
2023-03-01T04:50:56.170Z,100770.91
2023-03-01T04:51:43.428Z,100774.56
2023-03-01T04:52:30.287Z,100765.47
2023-03-01T04:53:17.184Z,100770.47
2023-03-01T04:54:04.449Z,100774.44
2023-03-01T04:54:51.360Z,100772.72
2023-03-01T04:55:38.265Z,100772.31
2023-03-01T04:56:25.416Z,100774.44
2023-03-01T04:57:13.135Z,100764.22
2023-03-01T04:58:00.094Z,100769.41
2023-03-01T04:58:47.541Z,100776.16
2023-03-01T04:59:34.680Z,100772.31
2023-03-01T05:00:22.120Z,100768.22
2023-03-01T05:01:21.850Z,100769.09
2023-03-01T05:02:08.731Z,100767.50
2023-03-01T05:03:01.561Z,100763.78
2023-03-01T05:03:50.384Z,100769.53
2023-03-01T05:04:37.303Z,100765.97
2023-03-01T05:05:29.542Z,100768.87
2023-03-01T05:06:16.992Z,100765.38
2023-03-01T05:07:03.914Z,100766.75
2023-03-01T05:07:50.834Z,100764.72
2023-03-01T05:08:39.233Z,100773.47
2023-03-01T05:09:26.205Z,100769.00
2023-03-01T05:10:13.083Z,100762.16
2023-03-01T05:10:59.996Z,100766.97
2023-03-01T05:11:47.108Z,100759.81
2023-03-01T05:12:34.141Z,100766.97
2023-03-01T05:13:22.350Z,100765.97
2023-03-01T05:14:10.426Z,100759.06
2023-03-01T05:14:57.285Z,100757.69
2023-03-01T05:15:44.217Z,100753.88
2023-03-01T05:16:34.807Z,100752.44
2023-03-01T05:17:22.680Z,100760.88
2023-03-01T05:18:12.492Z,100753.62
2023-03-01T05:18:59.776Z,100759.59
2023-03-01T05:19:47.368Z,100765.69
2023-03-01T05:20:37.430Z,100760.09
2023-03-01T05:21:24.593Z,100765.53
2023-03-01T05:22:11.444Z,100767.25
2023-03-01T05:23:00.113Z,100763.53
2023-03-01T05:23:48.021Z,100760.97
2023-03-01T05:24:36.106Z,100766.09
2023-03-01T05:25:23.404Z,100757.34
2023-03-01T05:26:25.766Z,100762.03
2023-03-01T05:27:14.976Z,100763.28
2023-03-01T05:28:05.569Z,100764.25
2023-03-01T05:28:52.455Z,100766.69
2023-03-01T05:29:40.675Z,100770.09
2023-03-01T05:30:28.377Z,100769.59
2023-03-01T05:31:15.310Z,100771.53
2023-03-01T05:32:03.894Z,100773.22
2023-03-01T05:32:56.962Z,100772.94
2023-03-01T05:33:44.638Z,100771.12
2023-03-01T05:34:34.017Z,100770.78
2023-03-01T05:35:21.117Z,100772.06
2023-03-01T05:36:10.859Z,100779.13
2023-03-01T05:36:58.404Z,100768.22
2023-03-01T05:37:48.650Z,100776.34
2023-03-01T05:38:35.703Z,100782.09
2023-03-01T05:39:24.253Z,100772.94
2023-03-01T05:40:16.794Z,100772.03
2023-03-01T05:41:03.759Z,100772.56
2023-03-01T05:41:58.323Z,100769.56
2023-03-01T05:42:55.243Z,100774.34
2023-03-01T05:43:44.740Z,100777.47
2023-03-01T05:44:31.614Z,100772.97
2023-03-01T05:45:19.228Z,100772.00
2023-03-01T05:46:06.336Z,100776.37
2023-03-01T05:46:53.740Z,100773.47
2023-03-01T05:47:44.869Z,100777.03
2023-03-01T05:48:31.859Z,100778.75
2023-03-01T05:49:19.490Z,100776.91
2023-03-01T05:50:08.694Z,100779.47
2023-03-01T05:50:55.597Z,100787.38
2023-03-01T05:51:43.872Z,100784.03
2023-03-01T05:52:30.857Z,100781.78
2023-03-01T05:53:20.712Z,100785.50
2023-03-01T05:54:08.338Z,100786.34
2023-03-01T05:54:55.439Z,100789.94
2023-03-01T05:55:43.930Z,100793.59
2023-03-01T05:56:31.442Z,100787.19
2023-03-01T05:57:18.742Z,100788.34
2023-03-01T05:58:08.404Z,100795.75
2023-03-01T05:58:56.075Z,100797.41
2023-03-01T05:59:42.932Z,100804.25
2023-03-01T06:00:31.119Z,100798.19
2023-03-01T06:01:17.994Z,100799.84
2023-03-01T06:02:04.945Z,100792.09
2023-03-01T06:02:53.010Z,100800.19
2023-03-01T06:03:39.986Z,100797.75
2023-03-01T06:04:27.110Z,100792.00
2023-03-01T06:05:14.686Z,100797.75
2023-03-01T06:06:02.014Z,100790.28
2023-03-01T06:06:49.067Z,100798.94
2023-03-01T06:07:36.432Z,100794.13
2023-03-01T06:08:23.576Z,100797.03
2023-03-01T06:09:11.052Z,100791.59
2023-03-01T06:09:57.901Z,100787.62
2023-03-01T06:10:44.747Z,100789.75
2023-03-01T06:11:31.667Z,100794.22
2023-03-01T06:12:18.824Z,100802.50
2023-03-01T06:13:05.848Z,100795.38
2023-03-01T06:13:52.710Z,100792.87
2023-03-01T06:14:39.649Z,100796.09
2023-03-01T06:15:26.804Z,100791.19
2023-03-01T06:16:14.366Z,100798.84
2023-03-01T06:17:01.322Z,100799.91
2023-03-01T06:17:48.216Z,100794.62
2023-03-01T06:18:35.045Z,100787.66
2023-03-01T06:19:21.889Z,100790.81
2023-03-01T06:20:12.732Z,100790.38
2023-03-01T06:20:59.730Z,100797.62
2023-03-01T06:21:46.780Z,100790.38
2023-03-01T06:22:33.732Z,100794.31
2023-03-01T06:23:20.612Z,100795.75
2023-03-01T06:24:08.587Z,100801.81
2023-03-01T06:24:55.818Z,100800.97
2023-03-01T06:25:43.197Z,100799.91
2023-03-01T06:26:30.424Z,100797.75
2023-03-01T06:27:17.671Z,100799.34
2023-03-01T06:28:06.113Z,100801.53
2023-03-01T06:28:53.056Z,100789.87
2023-03-01T06:29:41.757Z,100795.97
2023-03-01T06:30:28.762Z,100793.44
2023-03-01T06:31:15.927Z,100797.16
2023-03-01T06:32:04.208Z,100792.28
2023-03-01T06:32:51.288Z,100800.69
2023-03-01T06:33:38.193Z,100806.91
2023-03-01T06:34:25.230Z,100803.94
2023-03-01T06:35:14.080Z,100803.37
2023-03-01T06:36:01.153Z,100802.03
2023-03-01T06:37:34.939Z,100809.69
2023-03-01T06:38:43.758Z,100809.22
2023-03-01T06:39:31.125Z,100810.31
2023-03-01T06:40:46.760Z,100810.69
2023-03-01T06:41:35.268Z,100810.88
2023-03-01T06:43:15.487Z,100812.03
2023-03-01T06:58:54.693Z,100820.13
2023-03-01T06:59:41.773Z,100811.16
2023-03-01T07:00:29.870Z,100815.31
2023-03-01T07:01:17.159Z,100809.84
2023-03-01T07:02:04.742Z,100817.63
2023-03-01T07:02:52.396Z,100811.91
2023-03-01T07:03:39.378Z,100817.66
2023-03-01T07:04:26.286Z,100807.31
2023-03-01T07:05:13.228Z,100812.41
2023-03-01T07:06:00.701Z,100812.78
2023-03-01T07:06:53.291Z,100810.09
2023-03-01T07:07:41.095Z,100818.00
2023-03-01T07:08:28.751Z,100815.09
2023-03-01T07:09:21.060Z,100811.09
2023-03-01T07:10:09.456Z,100812.19
2023-03-01T07:10:57.973Z,100814.84
2023-03-01T07:11:45.643Z,100813.75
2023-03-01T07:12:32.499Z,100813.25
2023-03-01T07:13:19.477Z,100812.78
2023-03-01T07:14:08.232Z,100811.06
2023-03-01T07:14:55.140Z,100809.84
2023-03-01T07:15:43.210Z,100812.53
2023-03-01T07:16:30.534Z,100811.94
2023-03-01T07:17:17.998Z,100819.09
2023-03-01T07:18:04.880Z,100813.97
2023-03-01T07:18:51.993Z,100812.19
2023-03-01T07:19:39.006Z,100807.19
2023-03-01T07:20:26.779Z,100814.50
2023-03-01T07:21:15.196Z,100810.81
2023-03-01T07:22:02.356Z,100813.13
2023-03-01T07:22:49.458Z,100819.22
2023-03-01T07:23:36.357Z,100820.66
2023-03-01T07:24:23.406Z,100825.53
2023-03-01T07:25:19.266Z,100826.00
2023-03-01T07:26:06.348Z,100822.59
2023-03-01T07:26:55.027Z,100826.63
2023-03-01T07:27:45.019Z,100822.31
2023-03-01T07:28:31.958Z,100828.03
2023-03-01T07:29:19.252Z,100826.53
2023-03-01T07:30:06.881Z,100827.47
2023-03-01T07:30:53.885Z,100822.50
2023-03-01T07:31:40.756Z,100820.22
2023-03-01T07:32:27.707Z,100832.03
2023-03-01T07:33:14.631Z,100827.75
2023-03-01T07:34:01.576Z,100824.72
2023-03-01T07:34:48.830Z,100825.72
2023-03-01T07:35:35.767Z,100827.84
2023-03-01T07:36:22.914Z,100824.78
2023-03-01T07:37:10.528Z,100827.81
2023-03-01T07:37:57.766Z,100824.31
2023-03-01T07:38:45.281Z,100823.69
2023-03-01T07:39:32.185Z,100816.09
2023-03-01T07:40:19.136Z,100823.03
2023-03-01T07:41:06.946Z,100817.97
2023-03-01T07:41:55.867Z,100814.47
2023-03-01T07:42:43.546Z,100824.88
2023-03-01T07:43:31.637Z,100822.12
2023-03-01T07:44:19.181Z,100819.34
2023-03-01T07:45:08.247Z,100816.91
2023-03-01T07:46:00.230Z,100818.97
2023-03-01T07:46:47.195Z,100817.16
2023-03-01T07:47:36.272Z,100816.81
2023-03-01T07:48:23.296Z,100819.09
2023-03-01T07:49:10.603Z,100811.91
2023-03-01T07:50:21.483Z,100817.91
2023-03-01T07:52:16.695Z,100819.47
2023-03-01T07:53:04.003Z,100821.91
2023-03-01T07:55:10.125Z,100830.06
2023-03-01T07:56:13.584Z,100826.69
2023-03-01T07:57:00.517Z,100820.16
2023-03-01T07:57:47.415Z,100817.50
2023-03-01T07:58:39.040Z,100823.69
2023-03-01T07:59:30.272Z,100822.94
2023-03-01T08:00:21.086Z,100821.94
2023-03-01T08:01:09.966Z,100818.53
2023-03-01T08:02:00.306Z,100825.72
2023-03-01T08:02:47.436Z,100814.84
2023-03-01T08:03:35.186Z,100816.91
2023-03-01T08:04:22.412Z,100815.66
2023-03-01T08:05:11.325Z,100817.75
2023-03-01T08:06:00.836Z,100818.72
2023-03-01T08:06:47.774Z,100818.59
2023-03-01T08:07:34.902Z,100815.19
2023-03-01T08:08:21.885Z,100816.91
2023-03-01T08:09:11.901Z,100814.84
2023-03-01T08:09:59.224Z,100816.06
2023-03-01T08:10:46.250Z,100816.91
2023-03-01T08:11:33.342Z,100821.62
2023-03-01T08:12:20.603Z,100813.16
2023-03-01T08:13:07.654Z,100817.50
2023-03-01T08:13:54.793Z,100818.59
2023-03-01T08:14:42.094Z,100812.41
2023-03-01T08:15:29.111Z,100814.34
2023-03-01T08:16:17.417Z,100810.09
2023-03-01T08:17:04.572Z,100801.84
2023-03-01T08:17:54.562Z,100801.47
2023-03-01T08:18:41.765Z,100805.38
2023-03-01T08:19:29.371Z,100798.16
2023-03-01T08:20:19.997Z,100795.59
2023-03-01T08:21:10.114Z,100794.84
2023-03-01T08:21:59.593Z,100793.69
2023-03-01T08:22:46.665Z,100792.28
2023-03-01T08:23:33.912Z,100795.78
2023-03-01T08:24:21.270Z,100787.81
2023-03-01T08:25:08.639Z,100796.28
2023-03-01T08:25:55.856Z,100792.44
2023-03-01T08:26:43.211Z,100795.94
2023-03-01T08:27:30.303Z,100802.66
2023-03-01T08:28:17.386Z,100794.44
2023-03-01T08:29:05.178Z,100794.06
2023-03-01T08:29:52.142Z,100802.41
2023-03-01T08:30:39.281Z,100796.53
2023-03-01T08:31:30.062Z,100793.06
2023-03-01T08:32:17.233Z,100799.03
2023-03-01T08:33:04.425Z,100801.75
2023-03-01T08:33:56.649Z,100804.75
2023-03-01T08:34:43.703Z,100800.13
2023-03-01T08:35:30.793Z,100799.16
2023-03-01T08:36:18.501Z,100801.44
2023-03-01T08:37:07.782Z,100800.59
2023-03-01T08:37:54.988Z,100797.72
2023-03-01T08:38:42.091Z,100800.72
2023-03-01T08:39:29.198Z,100803.28
2023-03-01T08:40:16.605Z,100805.47
2023-03-01T08:41:04.725Z,100807.06
2023-03-01T08:41:51.710Z,100800.59
2023-03-01T08:42:38.710Z,100803.13
2023-03-01T08:43:26.483Z,100796.66
2023-03-01T08:44:15.311Z,100807.72
2023-03-01T08:45:02.312Z,100802.47
2023-03-01T08:45:50.310Z,100800.31
2023-03-01T08:46:39.671Z,100798.94
2023-03-01T08:47:27.534Z,100801.81
2023-03-01T08:48:14.563Z,100807.38
2023-03-01T08:49:01.698Z,100797.81
2023-03-01T08:49:51.062Z,100804.31
2023-03-01T08:50:38.107Z,100794.09
2023-03-01T08:51:25.836Z,100805.34
2023-03-01T08:52:12.897Z,100804.50
2023-03-01T08:53:02.043Z,100799.47
2023-03-01T08:53:49.704Z,100801.00
2023-03-01T08:54:38.065Z,100800.41
2023-03-01T08:55:25.128Z,100801.22
2023-03-01T08:56:12.405Z,100801.62
2023-03-01T08:57:00.393Z,100797.06
2023-03-01T08:57:47.346Z,100791.56
2023-03-01T08:58:34.503Z,100791.75
2023-03-01T08:59:21.730Z,100793.13
2023-03-01T09:00:09.983Z,100792.34
2023-03-01T09:00:57.946Z,100791.69
2023-03-01T09:01:45.497Z,100781.53
2023-03-01T09:02:32.615Z,100790.25
2023-03-01T09:03:19.713Z,100786.22
2023-03-01T09:04:55.436Z,100783.66
2023-03-01T09:05:42.695Z,100777.81
2023-03-01T09:06:34.314Z,100778.63
2023-03-01T09:07:21.371Z,100768.63
2023-03-01T09:08:09.613Z,100765.00
2023-03-01T09:08:56.843Z,100768.63
2023-03-01T09:09:43.941Z,100763.47
2023-03-01T09:10:31.154Z,100760.66
2023-03-01T09:11:22.522Z,100754.47
2023-03-01T09:12:09.693Z,100756.88
2023-03-01T09:12:56.745Z,100754.91
2023-03-01T09:13:47.561Z,100756.78
2023-03-01T09:14:34.733Z,100752.69
2023-03-01T09:15:21.749Z,100755.94
2023-03-01T09:16:10.396Z,100751.28
2023-03-01T09:16:57.539Z,100751.44
2023-03-01T09:17:45.114Z,100756.38
2023-03-01T09:18:32.405Z,100756.50
2023-03-01T09:19:21.612Z,100754.53
2023-03-01T09:20:09.312Z,100751.41
2023-03-01T09:21:10.678Z,100753.22
2023-03-01T09:21:59.543Z,100748.84
2023-03-01T09:22:46.595Z,100750.41
2023-03-01T09:23:33.966Z,100750.53
2023-03-01T09:24:23.147Z,100746.31
2023-03-01T09:25:10.985Z,100742.06
2023-03-01T09:25:58.029Z,100748.41
2023-03-01T09:26:48.865Z,100749.78
2023-03-01T09:27:36.925Z,100743.53
2023-03-01T09:28:29.825Z,100735.47
2023-03-01T09:29:18.028Z,100743.97
2023-03-01T09:30:05.699Z,100748.91
2023-03-01T09:30:52.796Z,100740.44
2023-03-01T09:31:40.188Z,100738.47
2023-03-01T09:32:27.298Z,100738.75
2023-03-01T09:33:15.856Z,100741.22
2023-03-01T09:34:02.923Z,100732.56
2023-03-01T09:35:08.090Z,100724.84
2023-03-01T09:35:59.519Z,100729.38